Time;durP1;ratioP1;P1;durP2;ratioP2;P2;SDS_P1;SDS_P2;PMS_P1;PMS_P2;Temp;Humidity;BMP_temperature;BMP_pressure;BME280_temperature;BME280_humidity;BME280_pressure;Samples;Min_cycle;Max_cycle;Signal;HPM_P1;HPM_P2
2021/03/25 00:01:35;;;;;;;51.50;22.05;;;;;;;-141.50;100.00;63355.56;5059269;28;20059;-78
2021/03/25 00:04:02;;;;;;;46.05;20.80;;;;;;;-141.50;100.00;63355.56;5092428;28;20382;-79
2021/03/25 00:06:29;;;;;;;49.10;20.75;;;;;;;-141.50;100.00;63355.56;5073544;28;20135;-77
2021/03/25 00:08:56;;;;;;;47.13;23.02;;;;;;;-141.50;100.00;63355.56;5074048;28;20055;-77
2021/03/25 00:11:22;;;;;;;51.10;22.83;;;;;;;-141.50;100.00;63355.56;5057572;28;20055;-78
2021/03/25 00:13:49;;;;;;;47.10;22.08;;;;;;;-141.50;100.00;63355.56;5078958;28;20063;-78
2021/03/25 00:16:16;;;;;;;56.55;23.30;;;;;;;-141.50;100.00;63355.56;5064086;28;20105;-78
2021/03/25 00:18:43;;;;;;;53.08;23.75;;;;;;;-141.50;100.00;63355.56;5074059;28;20048;-78
2021/03/25 00:21:12;;;;;;;53.45;22.40;;;;;;;-141.50;100.00;63355.56;5077513;28;20040;-79
2021/03/25 00:23:38;;;;;;;52.92;23.67;;;;;;;-141.50;100.00;63355.56;5080056;28;20418;-79
2021/03/25 00:26:05;;;;;;;56.95;24.05;;;;;;;-141.50;100.00;63355.56;5077926;28;20056;-78
2021/03/25 00:28:32;;;;;;;55.72;24.67;;;;;;;-141.50;100.00;63355.56;5096934;28;20040;-79
2021/03/25 00:30:58;;;;;;;54.65;23.20;;;;;;;-141.50;100.00;63355.56;5097597;28;20043;-79
2021/03/25 00:33:24;;;;;;;57.30;24.48;;;;;;;-141.50;100.00;63355.56;5062613;28;20414;-80
2021/03/25 00:35:51;;;;;;;56.83;24.92;;;;;;;-141.50;100.00;63355.56;5097551;28;20044;-79
2021/03/25 00:38:18;;;;;;;60.80;25.15;;;;;;;-141.50;100.00;63355.56;5079237;28;20052;-79
2021/03/25 00:40:47;;;;;;;55.35;23.65;;;;;;;-141.50;100.00;63355.56;5080681;28;20502;-79
2021/03/25 00:43:17;;;;;;;49.65;22.40;;;;;;;-141.50;100.00;63355.56;5105345;28;20047;-79
2021/03/25 00:45:46;;;;;;;55.53;23.42;;;;;;;-141.50;100.00;63355.56;5080897;28;20132;-79
2021/03/25 00:48:16;;;;;;;52.03;23.33;;;;;;;-141.50;100.00;63355.56;5104268;28;20047;-78
2021/03/25 00:50:47;;;;;;;57.00;23.58;;;;;;;-141.50;100.00;63355.56;5082550;28;20449;-79
2021/03/25 00:53:16;;;;;;;52.53;23.33;;;;;;;-141.50;100.00;63355.56;5081052;28;20101;-79
2021/03/25 00:55:42;;;;;;;50.50;22.30;;;;;;;-141.50;100.00;63355.56;5097462;28;20040;-79
2021/03/25 00:58:09;;;;;;;51.17;22.27;;;;;;;-141.50;100.00;63355.56;5078060;28;20055;-78
2021/03/25 01:00:38;;;;;;;52.67;23.30;;;;;;;-141.50;100.00;63355.56;5077748;28;20483;-78
2021/03/25 01:03:04;;;;;;;55.95;23.77;;;;;;;-141.50;100.00;63355.56;5076607;28;20143;-78
2021/03/25 01:05:31;;;;;;;51.53;23.25;;;;;;;-141.50;100.00;63355.56;5058979;28;20083;-79
2021/03/25 01:07:57;;;;;;;56.92;23.30;;;;;;;-141.50;100.00;63355.56;5095280;28;20051;-78
2021/03/25 01:10:33;;;;;;;59.38;23.55;;;;;;;-141.50;100.00;63355.56;5078065;28;20046;-78
2021/03/25 01:13:02;;;;;;;61.10;22.42;;;;;;;-141.50;100.00;63355.56;5061391;28;20048;-79
2021/03/25 01:15:28;;;;;;;58.45;22.98;;;;;;;-141.50;100.00;63355.56;5061161;28;20461;-78
2021/03/25 01:17:58;;;;;;;58.85;24.40;;;;;;;-141.50;100.00;63355.56;5078755;28;20308;-79
2021/03/25 01:20:31;;;;;;;56.92;24.27;;;;;;;-141.50;100.00;63355.56;5078583;28;20058;-80
2021/03/25 01:22:59;;;;;;;65.53;24.30;;;;;;;-141.50;100.00;63355.56;5077772;28;20089;-80
2021/03/25 01:25:27;;;;;;;57.85;24.25;;;;;;;-141.50;100.00;63355.56;5076511;28;20036;-79
2021/03/25 01:27:58;;;;;;;63.10;25.00;;;;;;;-141.50;100.00;63355.56;5095445;28;20048;-79
2021/03/25 01:30:27;;;;;;;57.40;23.55;;;;;;;-141.50;100.00;63355.56;5077949;28;20044;-79
2021/03/25 01:32:54;;;;;;;52.88;22.23;;;;;;;-141.50;100.00;63355.56;5088562;28;20055;-78
2021/03/25 01:35:21;;;;;;;60.67;24.85;;;;;;;-141.50;100.00;63355.56;5075872;28;20525;-79
2021/03/25 01:37:49;;;;;;;61.33;24.40;;;;;;;-141.50;100.00;63355.56;5077167;28;20047;-80
2021/03/25 01:40:32;;;;;;;55.67;24.05;;;;;;;-141.50;100.00;63355.56;5077274;28;20269;-79
2021/03/25 01:43:26;;;;;;;62.15;25.05;;;;;;;-141.50;100.00;63355.56;5076731;28;20119;-78
2021/03/25 01:45:57;;;;;;;54.30;22.88;;;;;;;-141.50;100.00;63355.56;5059114;28;20040;-79
2021/03/25 01:48:29;;;;;;;53.40;22.35;;;;;;;-141.50;100.00;63355.56;5076346;28;20048;-79
2021/03/25 01:51:05;;;;;;;61.00;24.08;;;;;;;-141.50;100.00;63355.56;5076150;28;20063;-78
2021/03/25 01:53:37;;;;;;;;;;;;;;;-141.50;100.00;63355.56;5076144;28;20051;-79
2021/03/25 01:56:40;;;;;;;54.15;22.65;;;;;;;-141.50;100.00;63355.56;5058903;28;19927;-79
2021/03/25 01:59:24;;;;;;;54.78;22.42;;;;;;;-141.50;100.00;63355.56;5076180;28;20107;-79
2021/03/25 02:01:57;;;;;;;61.13;23.67;;;;;;;-141.50;100.00;63355.56;5075551;28;20043;-79
2021/03/25 02:04:52;;;;;;;61.30;23.15;;;;;;;-141.50;100.00;63355.56;5059478;28;20546;-78
2021/03/25 02:07:30;;;;;;;51.88;21.80;;;;;;;-141.50;100.00;63355.56;5093310;28;20062;-79
2021/03/25 02:10:26;;;;;;;55.65;22.30;;;;;;;-141.50;100.00;63355.56;5071949;28;20040;-78
2021/03/25 02:13:07;;;;;;;57.63;22.92;;;;;;;-141.50;100.00;63355.56;5054485;28;20046;-78
2021/03/25 02:16:01;;;;;;;63.33;22.88;;;;;;;-141.50;100.00;63355.56;5069867;28;20051;-78
2021/03/25 02:18:36;;;;;;;58.63;22.85;;;;;;;-141.50;100.00;63355.56;5071528;28;20044;-79
2021/03/25 02:21:24;;;;;;;60.60;23.97;;;;;;;-141.50;100.00;63355.56;5080137;28;20071;-78
2021/03/25 02:24:23;;;;;;;57.47;22.80;;;;;;;-141.50;100.00;63355.56;5079933;28;20336;-79
2021/03/25 02:27:30;;;;;;;62.63;22.92;;;;;;;-141.50;100.00;63355.56;5075350;28;20048;-78
2021/03/25 02:30:07;;;;;;;57.00;23.27;;;;;;;-141.50;100.00;63355.56;5075490;28;20047;-78
2021/03/25 02:32:37;;;;;;;60.65;23.48;;;;;;;-141.50;100.00;63355.56;5093394;28;20115;-78
2021/03/25 02:35:31;;;;;;;50.67;22.25;;;;;;;-141.50;100.00;63355.56;5055924;28;20558;-77
2021/03/25 02:38:27;;;;;;;53.58;23.02;;;;;;;-141.50;100.00;63355.56;5090603;28;20052;-78
2021/03/25 02:40:58;;;;;;;54.03;22.83;;;;;;;-141.50;100.00;63355.56;5052600;28;20071;-79
2021/03/25 02:43:38;;;;;;;56.15;23.63;;;;;;;-141.50;100.00;63355.56;5054604;28;20049;-78
2021/03/25 02:46:11;;;;;;;59.25;23.73;;;;;;;-141.50;100.00;63355.56;5053870;28;20060;-79
2021/03/25 02:48:40;;;;;;;64.38;24.02;;;;;;;-141.50;100.00;63355.56;5074138;28;20053;-79
2021/03/25 02:51:14;;;;;;;65.25;22.73;;;;;;;-141.50;100.00;63355.56;5072834;28;20041;-79
2021/03/25 02:53:43;;;;;;;61.53;23.60;;;;;;;-141.50;100.00;63355.56;5053852;28;20048;-80
2021/03/25 02:56:18;;;;;;;64.38;24.08;;;;;;;-141.50;100.00;63355.56;5037723;28;20044;-79
2021/03/25 02:58:50;;;;;;;58.00;22.80;;;;;;;-141.50;100.00;63355.56;5073163;28;20033;-79
2021/03/25 03:01:18;;;;;;;61.90;24.45;;;;;;;-141.50;100.00;63355.56;5071647;28;20086;-79
2021/03/25 03:03:58;;;;;;;62.60;23.90;;;;;;;-141.50;100.00;63355.56;5053630;28;20396;-79
2021/03/25 03:06:40;;;;;;;70.97;25.48;;;;;;;-141.50;100.00;63355.56;5071951;28;20808;-79
2021/03/25 03:09:12;;;;;;;66.75;24.25;;;;;;;-141.50;100.00;63355.56;5086826;28;20040;-79
2021/03/25 03:11:44;;;;;;;62.10;24.42;;;;;;;-141.50;100.00;63355.56;5076921;28;20051;-78
2021/03/25 03:14:15;;;;;;;63.58;24.05;;;;;;;-141.50;100.00;63355.56;5078043;28;20101;-79
2021/03/25 03:16:50;;;;;;;63.92;24.83;;;;;;;-141.50;100.00;63355.56;5075001;28;20044;-78
2021/03/25 03:19:38;;;;;;;61.28;23.08;;;;;;;-141.50;100.00;63355.56;5074206;28;20048;-78
2021/03/25 03:22:07;;;;;;;55.47;22.73;;;;;;;-141.50;100.00;63355.56;5073135;28;20472;-78
2021/03/25 03:24:35;;;;;;;68.53;24.45;;;;;;;-141.50;100.00;63355.56;5056349;28;20442;-77
2021/03/25 03:27:17;;;;;;;63.80;24.35;;;;;;;-141.50;100.00;63355.56;5072812;28;20040;-78
2021/03/25 03:29:45;;;;;;;65.95;24.13;;;;;;;-141.50;100.00;63355.56;5069970;28;20044;-78
2021/03/25 03:32:14;;;;;;;71.45;23.73;;;;;;;-141.50;100.00;63355.56;5054096;28;20097;-78
2021/03/25 03:34:44;;;;;;;59.30;24.13;;;;;;;-141.50;100.00;63355.56;5070668;28;20594;-78
2021/03/25 03:37:37;;;;;;;61.25;22.55;;;;;;;-141.50;100.00;63355.56;5053093;28;20048;-78
2021/03/25 03:40:13;;;;;;;66.57;23.27;;;;;;;-141.50;100.00;63355.56;5061398;28;20063;-78
2021/03/25 03:42:56;;;;;;;68.75;24.23;;;;;;;-141.50;100.00;63355.56;5053528;28;20048;-78
2021/03/25 03:45:26;;;;;;;70.60;23.77;;;;;;;-141.50;100.00;63355.56;5053100;28;20048;-78
2021/03/25 03:47:55;;;;;;;74.40;26.23;;;;;;;-141.50;100.00;63355.56;5052491;28;20245;-77
2021/03/25 03:50:31;;;;;;;64.80;24.17;;;;;;;-141.50;100.00;63355.56;5074157;28;20045;-77
2021/03/25 03:52:58;;;;;;;75.40;25.70;;;;;;;-141.50;100.00;63355.56;5075374;28;20051;-78
2021/03/25 03:55:26;;;;;;;64.80;25.20;;;;;;;-141.50;100.00;63355.56;5065604;28;20048;-78
2021/03/25 03:58:23;;;;;;;71.28;24.50;;;;;;;-141.50;100.00;63355.56;5054867;28;20467;-78
2021/03/25 04:01:08;;;;;;;61.70;22.90;;;;;;;-141.50;100.00;63355.56;5073438;28;20044;-78
2021/03/25 04:03:46;;;;;;;64.80;24.10;;;;;;;-141.50;100.00;63355.56;5056362;28;20049;-77
2021/03/25 04:06:18;;;;;;;70.15;24.70;;;;;;;-141.50;100.00;63355.56;5039323;28;20133;-78
2021/03/25 04:09:04;;;;;;;78.32;25.02;;;;;;;-141.50;100.00;63355.56;5060934;28;20150;-79
2021/03/25 04:11:41;;;;;;;69.25;23.02;;;;;;;-141.50;100.00;63355.56;5078334;28;20724;-79
2021/03/25 04:14:10;;;;;;;57.10;22.10;;;;;;;-141.50;100.00;63355.56;5096349;28;20382;-79
2021/03/25 04:16:40;;;;;;;60.90;21.73;;;;;;;-141.50;100.00;63355.56;5077483;28;20040;-79
2021/03/25 04:19:35;;;;;;;62.45;22.00;;;;;;;-141.50;100.00;63355.56;5077460;28;20040;-79
2021/03/25 04:22:11;;;;;;;57.80;22.50;;;;;;;-141.50;100.00;63355.56;5076178;28;20396;-79
2021/03/25 04:24:46;;;;;;;;;;;;;;;-141.50;100.00;63355.56;5094017;28;20079;-79
2021/03/25 04:27:17;;;;;;;62.20;23.30;;;;;;;-141.50;100.00;63355.56;5060215;28;19924;-78
2021/03/25 04:29:49;;;;;;;62.50;22.83;;;;;;;-141.50;100.00;63355.56;5094476;28;20116;-79
2021/03/25 04:32:17;;;;;;;61.15;21.95;;;;;;;-141.50;100.00;63355.56;5075963;28;20044;-79
2021/03/25 04:34:48;;;;;;;63.53;23.15;;;;;;;-141.50;100.00;63355.56;5075551;28;20044;-79
2021/03/25 04:37:16;;;;;;;70.85;24.58;;;;;;;-141.50;100.00;63355.56;5076296;28;20044;-80
2021/03/25 04:39:43;;;;;;;59.92;22.60;;;;;;;-141.50;100.00;63355.56;5092370;28;20036;-79
2021/03/25 04:42:10;;;;;;;68.53;23.13;;;;;;;-141.50;100.00;63355.56;5078194;28;20036;-79
2021/03/25 04:45:08;;;;;;;65.75;23.02;;;;;;;-141.50;100.00;63355.56;5077741;28;20044;-79
2021/03/25 04:47:43;;;;;;;64.93;22.42;;;;;;;-141.50;100.00;63355.56;5073224;28;20087;-79
2021/03/25 04:50:22;;;;;;;66.63;23.58;;;;;;;-141.50;100.00;63355.56;5076903;28;20047;-79
2021/03/25 04:52:49;;;;;;;65.13;23.92;;;;;;;-141.50;100.00;63355.56;5094073;28;20054;-79
2021/03/25 04:55:23;;;;;;;68.15;23.70;;;;;;;-141.50;100.00;63355.56;5075909;28;20117;-79
2021/03/25 04:57:59;;;;;;;64.82;23.92;;;;;;;-141.50;100.00;63355.56;5092587;28;20040;-79
2021/03/25 05:00:32;;;;;;;65.70;23.33;;;;;;;-141.50;100.00;63355.56;5075090;28;20057;-79
2021/03/25 05:03:04;;;;;;;66.47;23.30;;;;;;;-141.50;100.00;63355.56;5059057;28;20120;-78
2021/03/25 05:05:33;;;;;;;66.63;23.70;;;;;;;-141.50;100.00;63355.56;5092174;28;20044;-79
2021/03/25 05:08:15;;;;;;;58.80;21.92;;;;;;;-141.50;100.00;63355.56;5058511;28;20368;-81
2021/03/25 05:10:45;;;;;;;62.92;23.15;;;;;;;-141.50;100.00;63355.56;5080682;28;20040;-80
2021/03/25 05:13:28;;;;;;;60.83;23.33;;;;;;;-141.50;100.00;63355.56;5096832;28;20050;-79
2021/03/25 05:16:09;;;;;;;67.10;23.55;;;;;;;-141.50;100.00;63355.56;5074828;28;20380;-80
2021/03/25 05:18:37;;;;;;;71.50;24.23;;;;;;;-141.50;100.00;63355.56;5076949;28;20558;-79
2021/03/25 05:21:15;;;;;;;69.55;24.08;;;;;;;-141.50;100.00;63355.56;5055472;28;20090;-79
2021/03/25 05:23:46;;;;;;;76.15;25.50;;;;;;;-141.50;100.00;63355.56;5092244;28;20052;-80
2021/03/25 05:26:41;;;;;;;62.00;23.17;;;;;;;-141.50;100.00;63355.56;5101912;28;20539;-79
2021/03/25 05:29:11;;;;;;;68.18;24.88;;;;;;;-141.50;100.00;63355.56;5086640;28;20074;-79
2021/03/25 05:31:39;;;;;;;71.15;25.35;;;;;;;-141.50;100.00;63355.56;5077263;28;20048;-78
2021/03/25 05:34:08;;;;;;;68.68;23.58;;;;;;;-141.50;100.00;63355.56;5065164;28;20065;-79
2021/03/25 05:36:35;;;;;;;66.38;24.02;;;;;;;-141.50;100.00;63355.56;5068922;22;20394;-76
2021/03/25 05:39:06;;;;;;;66.75;23.95;;;;;;;-141.50;100.00;63355.56;5050086;28;20113;-76
2021/03/25 05:41:53;;;;;;;64.93;23.52;;;;;;;-141.50;100.00;63355.56;5050524;28;20065;-76
2021/03/25 05:44:59;;;;;;;69.03;25.02;;;;;;;-141.50;100.00;63355.56;5051288;28;20072;-77
2021/03/25 05:47:47;;;;;;;68.65;24.50;;;;;;;-141.50;100.00;63355.56;5029558;28;20049;-76
2021/03/25 05:50:32;;;;;;;74.40;25.38;;;;;;;-141.50;100.00;63355.56;5031399;28;20142;-77
2021/03/25 05:53:27;;;;;;;64.38;23.45;;;;;;;-141.50;100.00;63355.56;5030877;28;20334;-75
2021/03/25 05:56:03;;;;;;;45.97;18.00;;;;;;;-141.50;100.00;63355.56;5033037;28;20516;-77
2021/03/25 05:58:37;;;;;;;;;;;;;;;-141.50;100.00;63355.56;5014508;28;20383;-75
2021/03/25 06:01:16;;;;;;;56.95;21.38;;;;;;;-141.50;100.00;63355.56;5030966;28;19964;-76
2021/03/25 06:03:56;;;;;;;66.85;23.05;;;;;;;-141.50;100.00;63355.56;5028754;28;20721;-75
2021/03/25 06:06:43;;;;;;;58.92;21.63;;;;;;;-141.50;100.00;63355.56;5011109;28;20397;-76
2021/03/25 06:09:35;;;;;;;59.78;23.08;;;;;;;-141.50;100.00;63355.56;5028336;28;20042;-77
2021/03/25 06:12:13;;;;;;;56.80;22.17;;;;;;;-141.50;100.00;63355.56;5028900;28;20045;-76
2021/03/25 06:14:49;;;;;;;45.13;16.40;;;;;;;-141.50;100.00;63355.56;5025478;28;20025;-74
2021/03/25 06:18:03;;;;;;;59.08;23.45;;;;;;;-141.50;100.00;63355.56;5011425;28;20044;-75
2021/03/25 06:20:44;;;;;;;56.50;23.15;;;;;;;-141.50;100.00;63355.56;5004900;28;20097;-75
2021/03/25 06:23:50;;;;;;;56.47;22.55;;;;;;;-141.50;100.00;63355.56;5014410;28;20103;-77
2021/03/25 06:26:19;;;;;;;66.40;22.88;;;;;;;-141.50;100.00;63355.56;5030640;28;20049;-78
2021/03/25 06:28:52;;;;;;;51.03;20.55;;;;;;;-141.50;100.00;63355.56;5030019;28;20052;-75
2021/03/25 06:31:36;;;;;;;50.47;21.05;;;;;;;-141.50;100.00;63355.56;5029191;28;20045;-76
2021/03/25 06:34:11;;;;;;;54.95;22.63;;;;;;;-141.50;100.00;63355.56;5030175;28;20045;-77
2021/03/25 06:36:55;;;;;;;53.25;21.83;;;;;;;-141.50;100.00;63355.56;5030004;28;20041;-76
2021/03/25 06:39:30;;;;;;;52.40;20.77;;;;;;;-141.50;100.00;63355.56;5028551;28;20048;-76
2021/03/25 06:42:08;;;;;;;54.53;23.02;;;;;;;-141.50;100.00;63355.56;5028102;28;20060;-76
2021/03/25 06:44:47;;;;;;;50.03;22.10;;;;;;;-141.50;100.00;63355.56;5029327;28;20045;-76
2021/03/25 06:47:29;;;;;;;51.67;21.83;;;;;;;-141.50;100.00;63355.56;5031188;28;20045;-76
2021/03/25 06:49:59;;;;;;;52.17;21.73;;;;;;;-141.50;100.00;63355.56;5029018;28;20045;-75
2021/03/25 06:52:31;;;;;;;53.17;22.13;;;;;;;-141.50;100.00;63355.56;5029448;28;20052;-75
2021/03/25 06:55:10;;;;;;;52.92;22.23;;;;;;;-141.50;100.00;63355.56;5029508;28;20045;-76
2021/03/25 06:57:45;;;;;;;55.38;21.92;;;;;;;-141.50;100.00;63355.56;5028582;28;20037;-75
2021/03/25 07:00:16;;;;;;;46.88;21.42;;;;;;;-141.50;100.00;63355.56;5031051;28;20103;-74
2021/03/25 07:02:45;;;;;;;52.60;23.42;;;;;;;-141.50;100.00;63355.56;5019395;28;20519;-75
2021/03/25 07:05:20;;;;;;;55.40;22.38;;;;;;;-141.50;100.00;63355.56;5029289;28;20103;-75
2021/03/25 07:07:57;;;;;;;52.97;21.33;;;;;;;-141.50;100.00;63355.56;5029191;28;20120;-74
2021/03/25 07:10:24;;;;;;;49.80;21.00;;;;;;;-141.50;100.00;63355.56;5031470;28;20041;-75
2021/03/25 07:12:51;;;;;;;53.05;20.73;;;;;;;-141.50;100.00;63355.56;5030582;28;20046;-75
2021/03/25 07:15:40;;;;;;;48.83;20.25;;;;;;;-141.50;100.00;63355.56;5028178;28;20037;-75
2021/03/25 07:18:23;;;;;;;53.00;22.35;;;;;;;-141.50;100.00;63355.56;5028616;28;20120;-75
2021/03/25 07:21:19;;;;;;;56.10;22.20;;;;;;;-141.50;100.00;63355.56;5029468;28;20049;-77
2021/03/25 07:23:45;;;;;;;47.45;20.50;;;;;;;-141.50;100.00;63355.56;5027322;28;20524;-76
2021/03/25 07:26:37;;;;;;;45.60;19.73;;;;;;;-141.50;100.00;63355.56;5028326;28;20508;-77
2021/03/25 07:29:12;;;;;;;43.78;19.63;;;;;;;-141.50;100.00;63355.56;5029475;28;20501;-75
2021/03/25 07:31:49;;;;;;;40.65;18.00;;;;;;;-141.50;100.00;63355.56;5027972;28;20100;-76
2021/03/25 07:34:27;;;;;;;40.25;16.40;;;;;;;-141.50;100.00;63355.56;5028646;28;20053;-76
2021/03/25 07:36:55;;;;;;;37.55;15.48;;;;;;;-141.50;100.00;63355.56;5027149;28;20037;-75
2021/03/25 07:39:26;;;;;;;30.52;14.02;;;;;;;-141.50;100.00;63355.56;5029064;28;20051;-76
2021/03/25 07:41:56;;;;;;;31.13;14.00;;;;;;;-141.50;100.00;63355.56;5029675;28;20477;-79
2021/03/25 07:44:39;;;;;;;30.10;12.90;;;;;;;-141.50;100.00;63355.56;5029093;28;20042;-76
2021/03/25 07:47:23;;;;;;;32.80;13.32;;;;;;;-141.50;100.00;63355.56;5031211;28;20041;-75
2021/03/25 07:49:50;;;;;;;34.08;13.27;;;;;;;-141.50;100.00;63355.56;5036622;28;20051;-74
2021/03/25 07:52:31;;;;;;;29.45;11.93;;;;;;;-141.50;100.00;63355.56;5029141;28;20132;-74
2021/03/25 07:55:19;;;;;;;30.98;12.77;;;;;;;-141.50;100.00;63355.56;5027490;28;20099;-73
2021/03/25 07:57:48;;;;;;;29.15;12.45;;;;;;;-141.50;100.00;63355.56;5027977;28;20608;-75
2021/03/25 08:00:18;;;;;;;30.73;12.63;;;;;;;-141.50;100.00;63355.56;5028008;28;20052;-74
2021/03/25 08:02:45;;;;;;;30.88;11.95;;;;;;;-141.50;100.00;63355.56;5024244;28;20048;-75
2021/03/25 08:05:20;;;;;;;31.05;12.85;;;;;;;-141.50;100.00;63355.56;5028501;28;20048;-74
2021/03/25 08:07:49;;;;;;;29.42;12.15;;;;;;;-141.50;100.00;63355.56;5028433;28;20069;-77
2021/03/25 08:10:27;;;;;;;31.77;12.48;;;;;;;-141.50;100.00;63355.56;5028733;28;20125;-76
2021/03/25 08:13:23;;;;;;;29.83;12.45;;;;;;;-141.50;100.00;63355.56;5010601;28;20055;-74
2021/03/25 08:15:52;;;;;;;32.85;12.55;;;;;;;-141.50;100.00;63355.56;5027062;28;20111;-75
2021/03/25 08:18:55;;;;;;;30.67;12.80;;;;;;;-141.50;100.00;63355.56;5028793;28;20052;-77
2021/03/25 08:21:42;;;;;;;33.60;13.07;;;;;;;-141.50;100.00;63355.56;5028368;28;20408;-77
2021/03/25 08:24:45;;;;;;;31.10;12.65;;;;;;;-141.50;100.00;63355.56;5028860;28;20045;-77
2021/03/25 08:27:30;;;;;;;33.17;12.77;;;;;;;-141.50;100.00;63355.56;5031963;28;20045;-69
2021/03/25 08:30:24;;;;;;;33.80;13.05;;;;;;;-141.50;100.00;63355.56;5028545;28;20587;-73
2021/03/25 08:33:28;;;;;;;33.75;13.23;;;;;;;-141.50;100.00;63355.56;5028562;28;20331;-73
2021/03/25 08:36:10;;;;;;;35.38;12.95;;;;;;;-141.50;100.00;63355.56;5037257;28;20037;-73
2021/03/25 08:39:01;;;;;;;34.17;12.75;;;;;;;-141.50;100.00;63355.56;5031744;28;20044;-73
2021/03/25 08:41:34;;;;;;;30.88;12.32;;;;;;;-141.50;100.00;63355.56;5031900;28;20037;-75
2021/03/25 08:44:19;;;;;;;32.58;13.38;;;;;;;-141.50;100.00;63355.56;5031594;28;20552;-73
2021/03/25 08:46:57;;;;;;;31.42;12.70;;;;;;;-141.50;100.00;63355.56;5031754;28;20393;-75
2021/03/25 08:49:26;;;;;;;31.63;13.05;;;;;;;-141.50;100.00;63355.56;5030283;28;20099;-75
2021/03/25 08:51:56;;;;;;;40.03;14.80;;;;;;;-141.50;100.00;63355.56;5029799;28;20045;-75
2021/03/25 08:54:33;;;;;;;34.38;14.43;;;;;;;-141.50;100.00;63355.56;5030147;28;20045;-75
2021/03/25 08:57:24;;;;;;;37.10;14.43;;;;;;;-141.50;100.00;63355.56;5031414;28;20069;-75
2021/03/25 09:00:03;;;;;;;37.03;14.85;;;;;;;-141.50;100.00;63355.56;5026293;28;20061;-74
2021/03/25 09:02:43;;;;;;;30.33;12.85;;;;;;;-141.50;100.00;63355.56;5028950;28;20401;-74
2021/03/25 09:05:39;;;;;;;31.63;13.52;;;;;;;-141.50;100.00;63355.56;5031212;28;20042;-73
2021/03/25 09:08:13;;;;;;;38.20;14.00;;;;;;;-141.50;100.00;63355.56;5031085;28;20375;-75
2021/03/25 09:10:55;;;;;;;35.65;13.98;;;;;;;-141.50;100.00;63355.56;5043528;28;20053;-74
2021/03/25 09:13:25;;;;;;;32.25;12.25;;;;;;;-141.50;100.00;63355.56;5033151;28;20053;-73
2021/03/25 09:15:54;;;;;;;33.35;12.55;;;;;;;-141.50;100.00;63355.56;5030425;28;20455;-74
2021/03/25 09:18:24;;;;;;;32.03;12.70;;;;;;;-141.50;100.00;63355.56;5030349;28;20038;-76
2021/03/25 09:20:54;;;;;;;31.00;12.70;;;;;;;-141.50;100.00;63355.56;5032576;28;20042;-73
2021/03/25 09:23:30;;;;;;;33.38;12.65;;;;;;;-141.50;100.00;63355.56;5035868;28;20409;-74
2021/03/25 09:25:59;;;;;;;34.83;13.43;;;;;;;-141.50;100.00;63355.56;5031084;28;20497;-73
2021/03/25 09:29:02;;;;;;;30.38;12.32;;;;;;;-141.50;100.00;63355.56;5030911;28;20041;-75
2021/03/25 09:32:00;;;;;;;36.75;13.25;;;;;;;-141.50;100.00;63355.56;5030688;28;20053;-73
2021/03/25 09:34:26;;;;;;;34.00;13.10;;;;;;;-141.50;100.00;63355.56;5009255;28;20080;-74
2021/03/25 09:37:20;;;;;;;33.83;13.13;;;;;;;-141.50;100.00;63355.56;5030408;28;20572;-75
2021/03/25 09:40:09;;;;;;;31.75;13.80;;;;;;;-141.50;100.00;63355.56;5030296;28;20057;-74
2021/03/25 09:42:35;;;;;;;36.10;14.00;;;;;;;-141.50;100.00;63355.56;5030509;28;20045;-74
2021/03/25 09:45:30;;;;;;;34.97;13.32;;;;;;;-141.50;100.00;63355.56;5029342;28;20073;-74
2021/03/25 09:48:04;;;;;;;36.58;13.27;;;;;;;-141.50;100.00;63355.56;5030231;28;20425;-73
2021/03/25 09:50:32;;;;;;;34.03;13.32;;;;;;;-141.50;100.00;63355.56;5029066;28;20047;-74
2021/03/25 09:53:17;;;;;;;35.78;13.57;;;;;;;-141.50;100.00;63355.56;5029050;28;20077;-73
2021/03/25 09:56:21;;;;;;;34.50;13.65;;;;;;;-141.50;100.00;63355.56;5030321;28;20122;-76
2021/03/25 09:58:48;;;;;;;34.17;14.15;;;;;;;-141.50;100.00;63355.56;5028973;28;20045;-74
2021/03/25 10:01:58;;;;;;;34.08;13.68;;;;;;;-141.50;100.00;63355.56;5030429;28;20052;-74
2021/03/25 10:04:38;;;;;;;33.78;12.45;;;;;;;-141.50;100.00;63355.56;4988441;28;20051;-75
2021/03/25 10:07:14;;;;;;;35.95;13.57;;;;;;;-141.50;100.00;63355.56;5027481;28;20053;-75
2021/03/25 10:09:52;;;;;;;33.20;14.52;;;;;;;-141.50;100.00;63355.56;5044987;28;20049;-74
2021/03/25 10:12:45;;;;;;;33.60;13.88;;;;;;;-141.50;100.00;63355.56;5037072;28;20065;-74
2021/03/25 10:15:27;;;;;;;32.35;13.40;;;;;;;-141.50;100.00;63355.56;5030841;28;20048;-73
2021/03/25 10:18:19;;;;;;;35.65;13.75;;;;;;;-141.50;100.00;63355.56;5028436;28;20037;-74
2021/03/25 10:21:07;;;;;;;35.90;13.55;;;;;;;-141.50;100.00;63355.56;5023054;28;20428;-76
2021/03/25 10:23:51;;;;;;;31.48;13.07;;;;;;;-141.50;100.00;63355.56;5029608;28;20041;-75
2021/03/25 10:26:38;;;;;;;30.45;13.45;;;;;;;-141.50;100.00;63355.56;5029389;28;20045;-74
2021/03/25 10:29:07;;;;;;;34.55;12.98;;;;;;;-141.50;100.00;63355.56;5044934;28;20053;-74
2021/03/25 10:31:42;;;;;;;34.55;13.50;;;;;;;-141.50;100.00;63355.56;5029936;28;20493;-73
2021/03/25 10:34:20;;;;;;;34.22;13.65;;;;;;;-141.50;100.00;63355.56;5028402;28;20045;-74
2021/03/25 10:37:01;;;;;;;30.60;13.82;;;;;;;-141.50;100.00;63355.56;5029209;28;20056;-73
2021/03/25 10:39:35;;;;;;;27.85;12.80;;;;;;;-141.50;100.00;63355.56;5028746;28;20049;-72
2021/03/25 10:42:24;;;;;;;30.60;13.48;;;;;;;-141.50;100.00;63355.56;5009519;28;20060;-73
2021/03/25 10:44:52;;;;;;;32.13;14.93;;;;;;;-141.50;100.00;63355.56;5009588;28;20420;-74
2021/03/25 10:47:25;;;;;;;33.42;13.65;;;;;;;-141.50;100.00;63355.56;5009821;28;20072;-76
2021/03/25 10:49:57;;;;;;;29.77;13.65;;;;;;;-141.50;100.00;63355.56;5008482;28;20049;-72
2021/03/25 10:52:29;;;;;;;30.88;14.50;;;;;;;-141.50;100.00;63355.56;5009392;28;20038;-74
2021/03/25 10:54:57;;;;;;;29.10;13.65;;;;;;;-141.50;100.00;63355.56;5009669;28;20053;-74
2021/03/25 10:57:28;;;;;;;32.85;14.73;;;;;;;-141.50;100.00;63355.56;5009191;28;20550;-73
2021/03/25 11:00:01;;;;;;;32.22;14.73;;;;;;;-141.50;100.00;63355.56;5009654;28;20056;-74
2021/03/25 11:02:30;;;;;;;28.67;13.23;;;;;;;-141.50;100.00;63355.56;5009522;28;20052;-74
2021/03/25 11:05:16;;;;;;;25.27;13.80;;;;;;;-141.50;100.00;63355.56;5009424;28;20052;-74
2021/03/25 11:07:55;;;;;;;31.30;14.13;;;;;;;-141.50;100.00;63355.56;5009320;28;20088;-74
2021/03/25 11:10:36;;;;;;;27.33;14.20;;;;;;;-141.50;100.00;63355.56;5007986;28;20555;-75
2021/03/25 11:13:17;;;;;;;31.70;14.13;;;;;;;-141.50;100.00;63355.56;5008191;28;20405;-74
2021/03/25 11:15:45;;;;;;;31.65;14.48;;;;;;;-141.50;100.00;63355.56;5009142;28;20046;-74
2021/03/25 11:18:26;;;;;;;28.92;14.02;;;;;;;-141.50;100.00;63355.56;5009174;28;20042;-72
2021/03/25 11:20:55;;;;;;;26.90;13.60;;;;;;;-141.50;100.00;63355.56;5008854;28;20121;-74
2021/03/25 11:23:25;;;;;;;29.15;13.65;;;;;;;-141.50;100.00;63355.56;5008900;28;20046;-73
2021/03/25 11:26:01;;;;;;;29.23;14.52;;;;;;;-141.50;100.00;63355.56;5008908;28;20518;-76
2021/03/25 11:28:30;;;;;;;25.73;13.77;;;;;;;-141.50;100.00;63355.56;5007317;28;20398;-74
2021/03/25 11:31:25;;;;;;;28.08;15.00;;;;;;;-141.50;100.00;63355.56;5008519;28;20042;-73
2021/03/25 11:33:53;;;;;;;29.10;14.80;;;;;;;-141.50;100.00;63355.56;5008836;28;20068;-73
2021/03/25 11:36:33;;;;;;;31.10;14.23;;;;;;;-141.50;100.00;63355.56;5062597;23;20063;-80
2021/03/25 11:39:11;;;;;;;29.35;14.93;;;;;;;-141.50;100.00;63355.56;5073634;28;20052;-78